Main page
METAR-TAF:

METAR-TAF

Airports :

Zahedan Airport

Zahedan, Iran

latitude: 29-28N, longitude: 060-53E, elevation: 1370 m

Current weather observation

The report was made 48 minutes ago, at 01:00 UTC
Calm wind
Temperature 19°C
Humidity 14%
Pressure 1020 hPa
Visibility 10 km or more
no clouds below 1500 m and no cumulonimbus

METAR: OIZH 110100Z 00000KT CAVOK 19/M09 Q1019 A3011

Time: 06:18 (01:48 UTC)

Forecast

The report was made 2 hours and 38 minutes ago, at 23:10 UTC
Forecast valid from 11 at 00 UTC to 12 at 06 UTC
Wind 10 kt from the South/Southwest
Visibility: 8000 m
Temporary
from 11 at 00 UTC to 11 at 06 UTC
Wind 16 kt from the South/Southwest with gusts up to 24 kt
Temporary
from 11 at 07 UTC to 11 at 15 UTC
Wind 18 kt from the West/Southwest with gusts up to 26 kt

TAF: OIZH 102310Z 1100/1206 20010KT 8000 NSC TEMPO 1100/1106 20016G24KT TEMPO 1107/1115 25018G26KT

Weather observations and forecasts of more than 4000 airports (METAR and TAF reports).

The available stations are represented by yellow and red dots on the map.

Hover mouse over dot to see the name of the station.

Then click to see weather observations and forecasts.

To change the map : click on the green buttons with a black cross to zoom in, on the green button with a dash to zoom out, or on the green arrows for adjacent maps.


METAR-TAF: